sensor_id;sensor_type;location;lat;lon;timestamp;temperature;humidity
18191;DHT22;47004;51.366;12.348;2023-01-09T00:00:22;6.00;99.90
18191;DHT22;47004;51.366;12.348;2023-01-09T00:02:24;6.00;99.90
18191;DHT22;47004;51.366;12.348;2023-01-09T00:04:26;6.00;99.90
18191;DHT22;47004;51.366;12.348;2023-01-09T00:06:28;5.90;99.90
18191;DHT22;47004;51.366;12.348;2023-01-09T00:08:30;6.00;99.90
18191;DHT22;47004;51.366;12.348;2023-01-09T00:10:32;5.90;99.90
18191;DHT22;47004;51.366;12.348;2023-01-09T00:12:34;5.90;99.90
18191;DHT22;47004;51.366;12.348;2023-01-09T00:14:37;6.00;99.90
18191;DHT22;47004;51.366;12.348;2023-01-09T00:16:39;6.00;99.90
18191;DHT22;47004;51.366;12.348;2023-01-09T00:18:41;6.00;99.90
18191;DHT22;47004;51.366;12.348;2023-01-09T00:20:43;6.00;99.90
18191;DHT22;47004;51.366;12.348;2023-01-09T00:22:45;6.00;99.90
18191;DHT22;47004;51.366;12.348;2023-01-09T00:24:47;6.00;99.90
18191;DHT22;47004;51.366;12.348;2023-01-09T00:26:49;6.00;99.90
18191;DHT22;47004;51.366;12.348;2023-01-09T00:28:51;6.00;99.90
18191;DHT22;47004;51.366;12.348;2023-01-09T00:30:56;6.00;99.90
18191;DHT22;47004;51.366;12.348;2023-01-09T00:32:58;6.10;99.90
18191;DHT22;47004;51.366;12.348;2023-01-09T00:35:00;6.00;99.90
18191;DHT22;47004;51.366;12.348;2023-01-09T00:37:03;6.00;99.90
18191;DHT22;47004;51.366;12.348;2023-01-09T00:39:11;6.00;99.90
18191;DHT22;47004;51.366;12.348;2023-01-09T00:41:15;6.00;99.90
18191;DHT22;47004;51.366;12.348;2023-01-09T00:43:19;6.00;99.90
18191;DHT22;47004;51.366;12.348;2023-01-09T00:45:24;6.00;99.90
18191;DHT22;47004;51.366;12.348;2023-01-09T00:47:34;6.00;99.90
18191;DHT22;47004;51.366;12.348;2023-01-09T00:49:38;6.00;99.90
18191;DHT22;47004;51.366;12.348;2023-01-09T00:51:41;6.00;99.90
18191;DHT22;47004;51.366;12.348;2023-01-09T00:53:46;6.10;99.90
18191;DHT22;47004;51.366;12.348;2023-01-09T00:55:49;6.10;99.90
18191;DHT22;47004;51.366;12.348;2023-01-09T00:57:51;6.00;99.90
18191;DHT22;47004;51.366;12.348;2023-01-09T00:59:53;6.10;99.90
18191;DHT22;47004;51.366;12.348;2023-01-09T01:01:55;6.00;99.90
18191;DHT22;47004;51.366;12.348;2023-01-09T01:03:58;6.00;99.90
18191;DHT22;47004;51.366;12.348;2023-01-09T01:06:21;6.00;99.90
18191;DHT22;47004;51.366;12.348;2023-01-09T01:08:40;6.00;99.90
18191;DHT22;47004;51.366;12.348;2023-01-09T01:10:43;6.00;99.90
18191;DHT22;47004;51.366;12.348;2023-01-09T01:12:46;6.00;99.90
18191;DHT22;47004;51.366;12.348;2023-01-09T01:14:48;6.00;99.90
18191;DHT22;47004;51.366;12.348;2023-01-09T01:16:50;6.00;99.90
18191;DHT22;47004;51.366;12.348;2023-01-09T01:18:52;6.00;99.90
18191;DHT22;47004;51.366;12.348;2023-01-09T01:20:56;6.00;99.90
18191;DHT22;47004;51.366;12.348;2023-01-09T01:22:58;6.00;99.90
18191;DHT22;47004;51.366;12.348;2023-01-09T01:24:59;6.00;99.90
18191;DHT22;47004;51.366;12.348;2023-01-09T01:27:01;6.00;99.90
18191;DHT22;47004;51.366;12.348;2023-01-09T01:29:03;6.00;99.90
18191;DHT22;47004;51.366;12.348;2023-01-09T01:31:05;6.00;99.90
18191;DHT22;47004;51.366;12.348;2023-01-09T01:33:08;6.00;99.90
18191;DHT22;47004;51.366;12.348;2023-01-09T01:35:10;6.00;99.90
18191;DHT22;47004;51.366;12.348;2023-01-09T01:37:14;6.00;99.90
18191;DHT22;47004;51.366;12.348;2023-01-09T01:39:16;6.10;99.90
18191;DHT22;47004;51.366;12.348;2023-01-09T01:41:18;6.00;99.90
18191;DHT22;47004;51.366;12.348;2023-01-09T01:43:48;6.10;99.90
18191;DHT22;47004;51.366;12.348;2023-01-09T01:45:50;6.10;99.90
18191;DHT22;47004;51.366;12.348;2023-01-09T01:47:57;6.10;99.90
18191;DHT22;47004;51.366;12.348;2023-01-09T01:50:03;6.10;99.90
18191;DHT22;47004;51.366;12.348;2023-01-09T01:52:05;6.10;99.90
18191;DHT22;47004;51.366;12.348;2023-01-09T01:54:13;6.10;99.90
18191;DHT22;47004;51.366;12.348;2023-01-09T01:56:19;6.10;99.90
18191;DHT22;47004;51.366;12.348;2023-01-09T01:58:21;6.10;99.90
18191;DHT22;47004;51.366;12.348;2023-01-09T02:00:27;6.10;99.90
18191;DHT22;47004;51.366;12.348;2023-01-09T02:02:31;6.10;99.90
18191;DHT22;47004;51.366;12.348;2023-01-09T02:04:36;6.10;99.90
18191;DHT22;47004;51.366;12.348;2023-01-09T02:06:40;6.20;99.90
18191;DHT22;47004;51.366;12.348;2023-01-09T02:08:43;6.20;99.90
18191;DHT22;47004;51.366;12.348;2023-01-09T02:10:46;6.10;99.90
18191;DHT22;47004;51.366;12.348;2023-01-09T02:12:52;6.20;99.90
18191;DHT22;47004;51.366;12.348;2023-01-09T02:14:56;6.20;99.90
18191;DHT22;47004;51.366;12.348;2023-01-09T02:17:15;6.20;99.90
18191;DHT22;47004;51.366;12.348;2023-01-09T02:19:42;6.20;99.90
18191;DHT22;47004;51.366;12.348;2023-01-09T02:22:02;6.30;99.90
18191;DHT22;47004;51.366;12.348;2023-01-09T02:24:25;6.30;99.90
18191;DHT22;47004;51.366;12.348;2023-01-09T02:26:58;6.20;99.90
18191;DHT22;47004;51.366;12.348;2023-01-09T02:29:21;6.30;99.90
18191;DHT22;47004;51.366;12.348;2023-01-09T02:31:32;6.30;99.90
18191;DHT22;47004;51.366;12.348;2023-01-09T02:33:45;6.40;99.90
18191;DHT22;47004;51.366;12.348;2023-01-09T02:36:05;6.40;99.90
18191;DHT22;47004;51.366;12.348;2023-01-09T02:38:18;6.50;99.90
18191;DHT22;47004;51.366;12.348;2023-01-09T02:40:26;6.40;99.90
18191;DHT22;47004;51.366;12.348;2023-01-09T02:42:30;6.50;99.90
18191;DHT22;47004;51.366;12.348;2023-01-09T02:44:34;6.50;99.90
18191;DHT22;47004;51.366;12.348;2023-01-09T02:46:37;6.50;99.90
18191;DHT22;47004;51.366;12.348;2023-01-09T02:48:40;6.50;99.90
18191;DHT22;47004;51.366;12.348;2023-01-09T02:50:48;6.50;99.90
18191;DHT22;47004;51.366;12.348;2023-01-09T02:53:06;6.50;99.90
18191;DHT22;47004;51.366;12.348;2023-01-09T02:55:17;6.40;99.90
18191;DHT22;47004;51.366;12.348;2023-01-09T02:57:41;6.40;99.90
18191;DHT22;47004;51.366;12.348;2023-01-09T02:59:58;6.40;99.90
18191;DHT22;47004;51.366;12.348;2023-01-09T03:02:17;6.40;99.90
18191;DHT22;47004;51.366;12.348;2023-01-09T03:04:26;6.40;99.90
18191;DHT22;47004;51.366;12.348;2023-01-09T03:06:38;6.40;99.90
18191;DHT22;47004;51.366;12.348;2023-01-09T03:08:47;6.30;99.90
18191;DHT22;47004;51.366;12.348;2023-01-09T03:10:53;6.30;99.90
18191;DHT22;47004;51.366;12.348;2023-01-09T03:12:57;6.30;99.90
18191;DHT22;47004;51.366;12.348;2023-01-09T03:15:04;6.30;99.90
18191;DHT22;47004;51.366;12.348;2023-01-09T03:17:13;6.30;99.90
18191;DHT22;47004;51.366;12.348;2023-01-09T03:19:19;6.30;99.90
18191;DHT22;47004;51.366;12.348;2023-01-09T03:21:22;6.20;99.90
18191;DHT22;47004;51.366;12.348;2023-01-09T03:23:24;6.30;99.90
18191;DHT22;47004;51.366;12.348;2023-01-09T03:25:27;6.20;99.90
18191;DHT22;47004;51.366;12.348;2023-01-09T03:27:30;6.30;99.90
18191;DHT22;47004;51.366;12.348;2023-01-09T03:29:31;6.30;99.90
18191;DHT22;47004;51.366;12.348;2023-01-09T03:31:34;6.30;99.90
18191;DHT22;47004;51.366;12.348;2023-01-09T03:33:37;6.20;99.90
18191;DHT22;47004;51.366;12.348;2023-01-09T03:35:39;6.30;99.90
18191;DHT22;47004;51.366;12.348;2023-01-09T03:37:41;6.30;99.90
18191;DHT22;47004;51.366;12.348;2023-01-09T03:39:43;6.20;99.90
18191;DHT22;47004;51.366;12.348;2023-01-09T03:41:45;6.20;99.90
18191;DHT22;47004;51.366;12.348;2023-01-09T03:43:47;6.20;99.90
18191;DHT22;47004;51.366;12.348;2023-01-09T03:45:49;6.20;99.90
18191;DHT22;47004;51.366;12.348;2023-01-09T03:47:50;6.20;99.90
18191;DHT22;47004;51.366;12.348;2023-01-09T03:49:54;6.20;99.90
18191;DHT22;47004;51.366;12.348;2023-01-09T03:51:56;6.20;99.90
18191;DHT22;47004;51.366;12.348;2023-01-09T03:53:58;6.20;99.90
18191;DHT22;47004;51.366;12.348;2023-01-09T03:56:00;6.30;99.90
18191;DHT22;47004;51.366;12.348;2023-01-09T03:58:02;6.20;99.90
18191;DHT22;47004;51.366;12.348;2023-01-09T04:00:05;6.30;99.90
18191;DHT22;47004;51.366;12.348;2023-01-09T04:02:08;6.20;99.90
18191;DHT22;47004;51.366;12.348;2023-01-09T04:04:10;6.30;99.90
18191;DHT22;47004;51.366;12.348;2023-01-09T04:06:13;6.30;99.90
18191;DHT22;47004;51.366;12.348;2023-01-09T04:08:15;6.30;99.90
18191;DHT22;47004;51.366;12.348;2023-01-09T04:10:17;6.30;99.90
18191;DHT22;47004;51.366;12.348;2023-01-09T04:12:19;6.30;99.90
18191;DHT22;47004;51.366;12.348;2023-01-09T04:14:21;6.30;99.90
18191;DHT22;47004;51.366;12.348;2023-01-09T04:16:23;6.30;99.90
18191;DHT22;47004;51.366;12.348;2023-01-09T04:18:25;6.30;99.90
18191;DHT22;47004;51.366;12.348;2023-01-09T04:20:27;6.30;99.90
18191;DHT22;47004;51.366;12.348;2023-01-09T04:22:30;6.30;99.90
18191;DHT22;47004;51.366;12.348;2023-01-09T04:24:32;6.30;99.90
18191;DHT22;47004;51.366;12.348;2023-01-09T04:26:37;6.30;99.90
18191;DHT22;47004;51.366;12.348;2023-01-09T04:28:39;6.30;99.90
18191;DHT22;47004;51.366;12.348;2023-01-09T04:30:41;6.30;99.90
18191;DHT22;47004;51.366;12.348;2023-01-09T04:32:43;6.30;99.90
18191;DHT22;47004;51.366;12.348;2023-01-09T04:34:45;6.30;99.90
18191;DHT22;47004;51.366;12.348;2023-01-09T04:36:47;6.30;99.90
18191;DHT22;47004;51.366;12.348;2023-01-09T04:38:51;6.30;99.90
18191;DHT22;47004;51.366;12.348;2023-01-09T04:40:54;6.30;99.90
18191;DHT22;47004;51.366;12.348;2023-01-09T04:42:56;6.30;99.90
18191;DHT22;47004;51.366;12.348;2023-01-09T04:44:58;6.30;99.90
18191;DHT22;47004;51.366;12.348;2023-01-09T04:47:00;6.30;99.90
18191;DHT22;47004;51.366;12.348;2023-01-09T04:49:02;6.30;99.90
18191;DHT22;47004;51.366;12.348;2023-01-09T04:51:04;6.30;99.90
18191;DHT22;47004;51.366;12.348;2023-01-09T04:53:09;6.40;99.90
18191;DHT22;47004;51.366;12.348;2023-01-09T04:55:12;6.40;99.90
18191;DHT22;47004;51.366;12.348;2023-01-09T04:57:14;6.30;99.90
18191;DHT22;47004;51.366;12.348;2023-01-09T04:59:16;6.40;99.90
18191;DHT22;47004;51.366;12.348;2023-01-09T05:01:18;6.40;99.90
18191;DHT22;47004;51.366;12.348;2023-01-09T05:03:20;6.30;99.90
18191;DHT22;47004;51.366;12.348;2023-01-09T05:05:22;6.40;99.90
18191;DHT22;47004;51.366;12.348;2023-01-09T05:07:24;6.40;99.90
18191;DHT22;47004;51.366;12.348;2023-01-09T05:09:28;6.40;99.90
18191;DHT22;47004;51.366;12.348;2023-01-09T05:11:31;6.40;99.90
18191;DHT22;47004;51.366;12.348;2023-01-09T05:13:33;6.40;99.90
18191;DHT22;47004;51.366;12.348;2023-01-09T05:15:35;6.40;99.90
18191;DHT22;47004;51.366;12.348;2023-01-09T05:17:37;6.40;99.90
18191;DHT22;47004;51.366;12.348;2023-01-09T05:19:39;6.40;99.90
18191;DHT22;47004;51.366;12.348;2023-01-09T05:21:41;6.40;99.90
18191;DHT22;47004;51.366;12.348;2023-01-09T05:23:43;6.40;99.90
18191;DHT22;47004;51.366;12.348;2023-01-09T05:25:45;6.40;99.90
18191;DHT22;47004;51.366;12.348;2023-01-09T05:27:48;6.40;99.90
18191;DHT22;47004;51.366;12.348;2023-01-09T05:29:50;6.30;99.90
18191;DHT22;47004;51.366;12.348;2023-01-09T05:31:52;6.30;99.90
18191;DHT22;47004;51.366;12.348;2023-01-09T05:33:55;6.40;99.90
18191;DHT22;47004;51.366;12.348;2023-01-09T05:35:58;6.30;99.90
18191;DHT22;47004;51.366;12.348;2023-01-09T05:38:00;6.30;99.90
18191;DHT22;47004;51.366;12.348;2023-01-09T05:40:06;6.30;99.90
18191;DHT22;47004;51.366;12.348;2023-01-09T05:42:09;6.40;99.90
18191;DHT22;47004;51.366;12.348;2023-01-09T05:44:13;6.40;99.90
18191;DHT22;47004;51.366;12.348;2023-01-09T05:46:15;6.40;99.90
18191;DHT22;47004;51.366;12.348;2023-01-09T05:48:17;6.40;99.90
18191;DHT22;47004;51.366;12.348;2023-01-09T05:50:19;6.40;99.90
18191;DHT22;47004;51.366;12.348;2023-01-09T05:52:21;6.30;99.90
18191;DHT22;47004;51.366;12.348;2023-01-09T05:54:23;6.40;99.90
18191;DHT22;47004;51.366;12.348;2023-01-09T05:56:25;6.30;99.90
18191;DHT22;47004;51.366;12.348;2023-01-09T05:58:27;6.30;99.90
18191;DHT22;47004;51.366;12.348;2023-01-09T06:00:30;6.30;99.90
18191;DHT22;47004;51.366;12.348;2023-01-09T06:02:32;6.30;99.90
18191;DHT22;47004;51.366;12.348;2023-01-09T06:04:34;6.30;99.90
18191;DHT22;47004;51.366;12.348;2023-01-09T06:06:36;6.30;99.90
18191;DHT22;47004;51.366;12.348;2023-01-09T06:08:39;6.30;99.90
18191;DHT22;47004;51.366;12.348;2023-01-09T06:10:41;6.30;99.90
18191;DHT22;47004;51.366;12.348;2023-01-09T06:12:48;6.40;99.90
18191;DHT22;47004;51.366;12.348;2023-01-09T06:14:51;6.40;99.90
18191;DHT22;47004;51.366;12.348;2023-01-09T06:16:54;6.40;99.90
18191;DHT22;47004;51.366;12.348;2023-01-09T06:18:56;6.40;99.90
18191;DHT22;47004;51.366;12.348;2023-01-09T06:20:58;6.40;99.90
18191;DHT22;47004;51.366;12.348;2023-01-09T06:23:00;6.40;99.90
18191;DHT22;47004;51.366;12.348;2023-01-09T06:25:05;6.40;99.90
18191;DHT22;47004;51.366;12.348;2023-01-09T06:27:07;6.40;99.90
18191;DHT22;47004;51.366;12.348;2023-01-09T06:29:09;6.40;99.90
18191;DHT22;47004;51.366;12.348;2023-01-09T06:31:11;6.40;99.90
18191;DHT22;47004;51.366;12.348;2023-01-09T06:33:15;6.40;99.90
18191;DHT22;47004;51.366;12.348;2023-01-09T06:35:17;6.40;99.90
18191;DHT22;47004;51.366;12.348;2023-01-09T06:37:20;6.40;99.90
18191;DHT22;47004;51.366;12.348;2023-01-09T06:39:22;6.40;99.90
18191;DHT22;47004;51.366;12.348;2023-01-09T06:41:24;6.40;99.90
18191;DHT22;47004;51.366;12.348;2023-01-09T06:43:25;6.40;99.90
18191;DHT22;47004;51.366;12.348;2023-01-09T06:45:27;6.40;99.90
18191;DHT22;47004;51.366;12.348;2023-01-09T06:47:29;6.40;99.90
18191;DHT22;47004;51.366;12.348;2023-01-09T06:49:32;6.40;99.90
18191;DHT22;47004;51.366;12.348;2023-01-09T06:51:34;6.40;99.90
18191;DHT22;47004;51.366;12.348;2023-01-09T06:53:36;6.40;99.90
18191;DHT22;47004;51.366;12.348;2023-01-09T06:55:38;6.40;99.90
18191;DHT22;47004;51.366;12.348;2023-01-09T06:57:40;6.40;99.90
18191;DHT22;47004;51.366;12.348;2023-01-09T06:59:42;6.40;99.90
18191;DHT22;47004;51.366;12.348;2023-01-09T07:01:44;6.40;99.90
18191;DHT22;47004;51.366;12.348;2023-01-09T07:03:46;6.40;99.90
18191;DHT22;47004;51.366;12.348;2023-01-09T07:05:50;6.40;99.90
18191;DHT22;47004;51.366;12.348;2023-01-09T07:07:52;6.40;99.90
18191;DHT22;47004;51.366;12.348;2023-01-09T07:09:54;6.40;99.90
18191;DHT22;47004;51.366;12.348;2023-01-09T07:11:56;6.40;99.90
18191;DHT22;47004;51.366;12.348;2023-01-09T07:13:58;6.40;99.90
18191;DHT22;47004;51.366;12.348;2023-01-09T07:16:00;6.50;99.90
18191;DHT22;47004;51.366;12.348;2023-01-09T07:18:03;6.40;99.90
18191;DHT22;47004;51.366;12.348;2023-01-09T07:20:06;6.40;99.90
18191;DHT22;47004;51.366;12.348;2023-01-09T07:22:10;6.50;99.90
18191;DHT22;47004;51.366;12.348;2023-01-09T07:24:12;6.40;99.90
18191;DHT22;47004;51.366;12.348;2023-01-09T07:26:14;6.40;99.90
18191;DHT22;47004;51.366;12.348;2023-01-09T07:28:16;6.50;99.90
18191;DHT22;47004;51.366;12.348;2023-01-09T07:30:18;6.50;99.90
18191;DHT22;47004;51.366;12.348;2023-01-09T07:32:20;6.50;99.90
18191;DHT22;47004;51.366;12.348;2023-01-09T07:34:22;6.50;99.90
18191;DHT22;47004;51.366;12.348;2023-01-09T07:36:26;6.50;99.90
18191;DHT22;47004;51.366;12.348;2023-01-09T07:38:30;6.50;99.90
18191;DHT22;47004;51.366;12.348;2023-01-09T07:40:32;6.50;99.90
18191;DHT22;47004;51.366;12.348;2023-01-09T07:42:34;6.50;99.90
18191;DHT22;47004;51.366;12.348;2023-01-09T07:44:36;6.50;99.90
18191;DHT22;47004;51.366;12.348;2023-01-09T07:46:39;6.60;99.90
18191;DHT22;47004;51.366;12.348;2023-01-09T07:48:41;6.60;99.90
18191;DHT22;47004;51.366;12.348;2023-01-09T07:50:42;6.70;99.90
18191;DHT22;47004;51.366;12.348;2023-01-09T07:52:45;6.70;99.90
18191;DHT22;47004;51.366;12.348;2023-01-09T07:54:48;6.70;99.90
18191;DHT22;47004;51.366;12.348;2023-01-09T07:56:50;6.70;99.90
18191;DHT22;47004;51.366;12.348;2023-01-09T07:58:52;6.70;99.90
18191;DHT22;47004;51.366;12.348;2023-01-09T08:00:54;7.00;99.90
18191;DHT22;47004;51.366;12.348;2023-01-09T08:02:56;6.80;99.90
18191;DHT22;47004;51.366;12.348;2023-01-09T08:04:58;6.80;99.90
18191;DHT22;47004;51.366;12.348;2023-01-09T08:07:00;6.80;99.90
18191;DHT22;47004;51.366;12.348;2023-01-09T08:09:02;6.90;99.90
18191;DHT22;47004;51.366;12.348;2023-01-09T08:11:06;6.90;99.90
18191;DHT22;47004;51.366;12.348;2023-01-09T08:13:08;6.90;99.90
18191;DHT22;47004;51.366;12.348;2023-01-09T08:15:10;6.90;99.90
18191;DHT22;47004;51.366;12.348;2023-01-09T08:17:12;6.90;99.90
18191;DHT22;47004;51.366;12.348;2023-01-09T08:19:14;7.00;99.90
18191;DHT22;47004;51.366;12.348;2023-01-09T08:21:16;7.00;99.90
18191;DHT22;47004;51.366;12.348;2023-01-09T08:23:18;7.10;99.90
18191;DHT22;47004;51.366;12.348;2023-01-09T08:25:20;7.10;99.90
18191;DHT22;47004;51.366;12.348;2023-01-09T08:27:23;7.10;99.90
18191;DHT22;47004;51.366;12.348;2023-01-09T08:29:25;7.20;99.90
18191;DHT22;47004;51.366;12.348;2023-01-09T08:31:27;7.20;99.90
18191;DHT22;47004;51.366;12.348;2023-01-09T08:33:29;7.20;99.90
18191;DHT22;47004;51.366;12.348;2023-01-09T08:35:31;7.20;99.90
18191;DHT22;47004;51.366;12.348;2023-01-09T08:37:33;7.20;99.90
18191;DHT22;47004;51.366;12.348;2023-01-09T08:39:35;7.20;99.90
18191;DHT22;47004;51.366;12.348;2023-01-09T08:41:37;7.30;99.90
18191;DHT22;47004;51.366;12.348;2023-01-09T08:43:58;7.30;99.90
18191;DHT22;47004;51.366;12.348;2023-01-09T08:46:20;7.30;99.90
18191;DHT22;47004;51.366;12.348;2023-01-09T08:48:39;7.30;99.90
18191;DHT22;47004;51.366;12.348;2023-01-09T08:50:41;7.40;99.90
18191;DHT22;47004;51.366;12.348;2023-01-09T08:52:44;7.40;99.90
18191;DHT22;47004;51.366;12.348;2023-01-09T08:54:46;7.40;99.90
18191;DHT22;47004;51.366;12.348;2023-01-09T08:56:48;7.40;99.90
18191;DHT22;47004;51.366;12.348;2023-01-09T08:58:50;7.40;99.90
18191;DHT22;47004;51.366;12.348;2023-01-09T09:00:53;7.40;99.90
18191;DHT22;47004;51.366;12.348;2023-01-09T09:02:57;7.40;99.90
18191;DHT22;47004;51.366;12.348;2023-01-09T09:04:59;7.40;99.90
18191;DHT22;47004;51.366;12.348;2023-01-09T09:07:01;7.40;99.90
18191;DHT22;47004;51.366;12.348;2023-01-09T09:09:03;7.40;99.90
18191;DHT22;47004;51.366;12.348;2023-01-09T09:11:06;7.50;99.90
18191;DHT22;47004;51.366;12.348;2023-01-09T09:13:08;7.50;99.90
18191;DHT22;47004;51.366;12.348;2023-01-09T09:15:10;7.50;99.90
18191;DHT22;47004;51.366;12.348;2023-01-09T09:17:24;7.60;99.90
18191;DHT22;47004;51.366;12.348;2023-01-09T09:19:27;7.50;99.90
18191;DHT22;47004;51.366;12.348;2023-01-09T09:21:31;7.60;99.90
18191;DHT22;47004;51.366;12.348;2023-01-09T09:23:33;7.60;99.90
18191;DHT22;47004;51.366;12.348;2023-01-09T09:25:37;7.60;99.90
18191;DHT22;47004;51.366;12.348;2023-01-09T09:27:39;7.60;99.90
18191;DHT22;47004;51.366;12.348;2023-01-09T09:29:41;7.60;99.90
18191;DHT22;47004;51.366;12.348;2023-01-09T09:31:45;7.70;99.90
18191;DHT22;47004;51.366;12.348;2023-01-09T09:33:49;7.60;99.90
18191;DHT22;47004;51.366;12.348;2023-01-09T09:35:51;7.60;99.90
18191;DHT22;47004;51.366;12.348;2023-01-09T09:37:54;7.60;99.90
18191;DHT22;47004;51.366;12.348;2023-01-09T09:39:56;7.60;99.90
18191;DHT22;47004;51.366;12.348;2023-01-09T09:45:05;7.60;99.90
18191;DHT22;47004;51.366;12.348;2023-01-09T09:47:28;7.60;99.90
18191;DHT22;47004;51.366;12.348;2023-01-09T09:49:39;7.60;99.90
18191;DHT22;47004;51.366;12.348;2023-01-09T09:52:03;7.60;99.90
18191;DHT22;47004;51.366;12.348;2023-01-09T09:54:10;7.60;99.90
18191;DHT22;47004;51.366;12.348;2023-01-09T09:56:15;7.60;99.90
18191;DHT22;47004;51.366;12.348;2023-01-09T09:58:21;7.60;99.90
18191;DHT22;47004;51.366;12.348;2023-01-09T10:00:27;7.70;99.90
18191;DHT22;47004;51.366;12.348;2023-01-09T10:02:36;7.80;99.90
18191;DHT22;47004;51.366;12.348;2023-01-09T10:04:47;7.70;99.90
18191;DHT22;47004;51.366;12.348;2023-01-09T10:06:53;7.80;99.90
18191;DHT22;47004;51.366;12.348;2023-01-09T10:09:01;7.80;99.90
18191;DHT22;47004;51.366;12.348;2023-01-09T10:11:14;7.80;99.90
18191;DHT22;47004;51.366;12.348;2023-01-09T10:13:19;7.80;99.90
18191;DHT22;47004;51.366;12.348;2023-01-09T10:15:45;7.90;99.90
18191;DHT22;47004;51.366;12.348;2023-01-09T10:17:58;7.90;99.90
18191;DHT22;47004;51.366;12.348;2023-01-09T10:20:37;8.00;99.90
18191;DHT22;47004;51.366;12.348;2023-01-09T10:22:45;8.10;99.90
18191;DHT22;47004;51.366;12.348;2023-01-09T10:24:59;8.10;99.90
18191;DHT22;47004;51.366;12.348;2023-01-09T10:27:15;8.00;99.90
18191;DHT22;47004;51.366;12.348;2023-01-09T10:29:34;8.00;99.90
18191;DHT22;47004;51.366;12.348;2023-01-09T10:31:46;8.00;99.90
18191;DHT22;47004;51.366;12.348;2023-01-09T10:33:53;8.00;99.90
18191;DHT22;47004;51.366;12.348;2023-01-09T10:38:38;8.10;99.90
18191;DHT22;47004;51.366;12.348;2023-01-09T10:40:45;8.10;99.90
18191;DHT22;47004;51.366;12.348;2023-01-09T10:42:52;8.10;99.90
18191;DHT22;47004;51.366;12.348;2023-01-09T10:44:59;8.20;99.90
18191;DHT22;47004;51.366;12.348;2023-01-09T10:47:04;8.30;99.90
18191;DHT22;47004;51.366;12.348;2023-01-09T10:49:11;8.30;99.90
18191;DHT22;47004;51.366;12.348;2023-01-09T10:51:18;8.30;99.90
18191;DHT22;47004;51.366;12.348;2023-01-09T10:53:25;8.40;99.90
18191;DHT22;47004;51.366;12.348;2023-01-09T10:55:34;8.40;99.90
18191;DHT22;47004;51.366;12.348;2023-01-09T10:57:41;8.40;99.90
18191;DHT22;47004;51.366;12.348;2023-01-09T10:59:43;8.40;99.90
18191;DHT22;47004;51.366;12.348;2023-01-09T11:01:45;8.40;99.90
18191;DHT22;47004;51.366;12.348;2023-01-09T11:03:46;8.50;99.90
18191;DHT22;47004;51.366;12.348;2023-01-09T11:05:50;8.50;99.90
18191;DHT22;47004;51.366;12.348;2023-01-09T11:07:57;8.50;99.90
18191;DHT22;47004;51.366;12.348;2023-01-09T11:10:02;8.50;99.90
18191;DHT22;47004;51.366;12.348;2023-01-09T11:12:22;8.50;99.90
18191;DHT22;47004;51.366;12.348;2023-01-09T11:14:26;8.50;99.90
18191;DHT22;47004;51.366;12.348;2023-01-09T11:16:30;8.50;99.90
18191;DHT22;47004;51.366;12.348;2023-01-09T11:18:33;8.40;99.90
18191;DHT22;47004;51.366;12.348;2023-01-09T11:20:36;8.40;99.90
18191;DHT22;47004;51.366;12.348;2023-01-09T11:22:42;8.40;99.90
18191;DHT22;47004;51.366;12.348;2023-01-09T11:24:44;8.30;99.90
18191;DHT22;47004;51.366;12.348;2023-01-09T11:26:47;8.30;99.90
18191;DHT22;47004;51.366;12.348;2023-01-09T11:29:08;8.20;99.90
18191;DHT22;47004;51.366;12.348;2023-01-09T11:31:22;8.20;99.90
18191;DHT22;47004;51.366;12.348;2023-01-09T11:33:27;8.10;99.90
18191;DHT22;47004;51.366;12.348;2023-01-09T11:35:31;8.10;99.90
18191;DHT22;47004;51.366;12.348;2023-01-09T11:37:33;8.10;99.90
18191;DHT22;47004;51.366;12.348;2023-01-09T11:39:37;8.10;99.90
18191;DHT22;47004;51.366;12.348;2023-01-09T11:41:41;8.10;99.90
18191;DHT22;47004;51.366;12.348;2023-01-09T11:43:44;8.00;99.90
18191;DHT22;47004;51.366;12.348;2023-01-09T11:45:52;8.00;99.90
18191;DHT22;47004;51.366;12.348;2023-01-09T11:47:55;8.00;99.90
18191;DHT22;47004;51.366;12.348;2023-01-09T11:50:07;8.00;99.90
18191;DHT22;47004;51.366;12.348;2023-01-09T11:52:18;8.00;99.90
18191;DHT22;47004;51.366;12.348;2023-01-09T11:54:24;8.10;99.90
18191;DHT22;47004;51.366;12.348;2023-01-09T11:56:27;8.20;99.90
18191;DHT22;47004;51.366;12.348;2023-01-09T11:58:32;8.20;99.90
18191;DHT22;47004;51.366;12.348;2023-01-09T12:00:40;8.20;99.90
18191;DHT22;47004;51.366;12.348;2023-01-09T12:02:58;8.30;99.90
18191;DHT22;47004;51.366;12.348;2023-01-09T12:05:16;8.30;99.90
18191;DHT22;47004;51.366;12.348;2023-01-09T12:10:24;8.40;99.90
18191;DHT22;47004;51.366;12.348;2023-01-09T12:12:34;8.40;99.90
18191;DHT22;47004;51.366;12.348;2023-01-09T12:14:47;8.50;99.90
18191;DHT22;47004;51.366;12.348;2023-01-09T12:17:12;8.60;99.90
18191;DHT22;47004;51.366;12.348;2023-01-09T12:19:39;8.70;99.90
18191;DHT22;47004;51.366;12.348;2023-01-09T12:21:48;8.80;99.90
18191;DHT22;47004;51.366;12.348;2023-01-09T12:24:05;8.90;99.90
18191;DHT22;47004;51.366;12.348;2023-01-09T12:26:15;9.10;99.90
18191;DHT22;47004;51.366;12.348;2023-01-09T12:28:54;9.30;99.90
18191;DHT22;47004;51.366;12.348;2023-01-09T12:31:10;9.40;99.90
18191;DHT22;47004;51.366;12.348;2023-01-09T12:33:27;9.50;99.90
18191;DHT22;47004;51.366;12.348;2023-01-09T12:35:39;9.60;99.90
18191;DHT22;47004;51.366;12.348;2023-01-09T12:40:29;9.50;99.90
18191;DHT22;47004;51.366;12.348;2023-01-09T12:42:41;9.40;99.90
18191;DHT22;47004;51.366;12.348;2023-01-09T12:44:49;9.40;99.90
18191;DHT22;47004;51.366;12.348;2023-01-09T12:47:10;9.40;99.90
18191;DHT22;47004;51.366;12.348;2023-01-09T12:49:26;9.40;99.90
18191;DHT22;47004;51.366;12.348;2023-01-09T12:51:34;9.50;99.90
18191;DHT22;47004;51.366;12.348;2023-01-09T12:53:41;9.60;99.90
18191;DHT22;47004;51.366;12.348;2023-01-09T12:55:46;9.70;99.90
18191;DHT22;47004;51.366;12.348;2023-01-09T12:57:53;9.70;99.90
18191;DHT22;47004;51.366;12.348;2023-01-09T12:59:58;9.80;99.90
18191;DHT22;47004;51.366;12.348;2023-01-09T13:02:10;10.00;99.90
18191;DHT22;47004;51.366;12.348;2023-01-09T13:04:20;10.10;99.90
18191;DHT22;47004;51.366;12.348;2023-01-09T13:06:28;10.20;99.90
18191;DHT22;47004;51.366;12.348;2023-01-09T13:08:36;10.30;99.90
18191;DHT22;47004;51.366;12.348;2023-01-09T13:10:42;10.30;99.90
18191;DHT22;47004;51.366;12.348;2023-01-09T13:12:47;10.20;99.90
18191;DHT22;47004;51.366;12.348;2023-01-09T13:14:56;10.10;99.90
18191;DHT22;47004;51.366;12.348;2023-01-09T13:17:01;9.90;99.90
18191;DHT22;47004;51.366;12.348;2023-01-09T13:19:09;9.80;99.90
18191;DHT22;47004;51.366;12.348;2023-01-09T13:21:14;9.70;99.90
18191;DHT22;47004;51.366;12.348;2023-01-09T13:23:22;9.60;99.90